Time,TemperatureF,DewpointF,PressureIn,WindDirection,WindDirectionDegrees,WindSpeedMPH,WindSpeedGustMPH,Humidity,HourlyPrecipIn,Conditions,Clouds,dailyrainin,SolarRadiationWatts/m^2,SoftwareType,DateUTC
2013-08-20 00:03:00,73.0,72.0,-100.00,SSE,160,2.0,4.0,98,0.00,,,0.39,0.000000,,2013-08-20 04:03:00,
2013-08-20 00:43:00,72.0,71.0,-100.00,SSE,158,0.0,3.0,98,0.00,,,0.38,0.000000,,2013-08-20 04:43:00,
2013-08-20 00:54:00,72.0,71.0,-100.00,SSE,158,0.0,3.0,98,0.00,,,0.38,0.000000,,2013-08-20 04:54:00,
2013-08-20 01:02:00,72.0,71.0,-100.00,SSE,158,0.0,3.0,98,0.00,,,0.38,0.000000,,2013-08-20 05:02:00,
2013-08-20 01:43:00,72.0,72.0,-100.00,SE,140,0.0,0.0,99,0.00,,,0.38,0.000000,,2013-08-20 05:43:00,
2013-08-20 01:52:00,72.0,72.0,-100.00,SE,140,0.0,0.0,99,0.00,,,0.38,0.000000,,2013-08-20 05:52:00,
2013-08-20 02:02:00,72.0,72.0,-100.00,SE,140,0.0,0.0,99,0.00,,,0.38,0.000000,,2013-08-20 06:02:00,
2013-08-20 02:42:00,72.0,72.0,-100.00,SE,125,0.0,4.0,99,0.00,,,0.38,0.000000,,2013-08-20 06:42:00,
2013-08-20 02:52:00,72.0,72.0,-100.00,SE,125,0.0,4.0,99,0.00,,,0.38,0.000000,,2013-08-20 06:52:00,
2013-08-20 03:01:00,72.0,72.0,-100.00,SE,125,0.0,4.0,99,0.00,,,0.38,0.000000,,2013-08-20 07:01:00,
2013-08-20 03:42:00,72.0,72.0,-100.00,SE,142,0.0,7.0,99,0.00,,,0.38,0.000000,,2013-08-20 07:42:00,
2013-08-20 03:52:00,72.0,72.0,-100.00,SE,142,0.0,7.0,99,0.00,,,0.38,0.000000,,2013-08-20 07:52:00,
2013-08-20 04:02:00,72.0,72.0,-100.00,SE,142,0.0,7.0,99,0.00,,,0.38,0.000000,,2013-08-20 08:02:00,
2013-08-20 04:42:00,72.0,72.0,-100.00,SE,142,0.0,0.0,99,0.00,,,0.35,0.000000,,2013-08-20 08:42:00,
2013-08-20 04:52:00,72.0,72.0,-100.00,SE,142,0.0,0.0,99,0.00,,,0.35,0.000000,,2013-08-20 08:52:00,
2013-08-20 05:01:00,72.0,72.0,-100.00,SE,142,0.0,0.0,99,0.00,,,0.35,0.000000,,2013-08-20 09:01:00,
2013-08-20 05:42:00,72.0,72.0,-100.00,SE,136,0.0,0.0,99,0.00,,,0.33,0.000000,,2013-08-20 09:42:00,
2013-08-20 05:53:00,72.0,72.0,-100.00,SE,136,0.0,0.0,99,0.00,,,0.33,0.000000,,2013-08-20 09:53:00,
2013-08-20 06:04:00,72.0,72.0,-100.00,SE,136,0.0,0.0,99,0.00,,,0.33,0.000000,,2013-08-20 10:04:00,
2013-08-20 06:43:00,72.0,72.0,-100.00,South,170,0.0,0.0,99,0.00,,,0.33,0.000000,,2013-08-20 10:43:00,
2013-08-20 06:52:00,72.0,72.0,-100.00,South,170,0.0,0.0,99,0.00,,,0.33,0.000000,,2013-08-20 10:52:00,
2013-08-20 07:02:00,72.0,72.0,-100.00,South,170,0.0,0.0,99,0.00,,,0.33,0.000000,,2013-08-20 11:02:00,
2013-08-20 07:42:00,72.0,72.0,-100.00,SSE,147,0.0,0.0,99,0.00,,,0.32,1.000000,,2013-08-20 11:42:00,
2013-08-20 07:52:00,72.0,72.0,-100.00,SSE,147,0.0,0.0,99,0.00,,,0.32,1.000000,,2013-08-20 11:52:00,
2013-08-20 08:01:00,72.0,72.0,-100.00,SSE,147,0.0,0.0,99,0.00,,,0.32,1.000000,,2013-08-20 12:01:00,
2013-08-20 08:42:00,73.0,73.0,-100.00,ESE,123,0.0,0.0,99,0.00,,,0.21,18.000000,,2013-08-20 12:42:00,
2013-08-20 08:52:00,73.0,73.0,-100.00,ESE,123,0.0,0.0,99,0.00,,,0.21,18.000000,,2013-08-20 12:52:00,
2013-08-20 09:01:00,73.0,73.0,-100.00,ESE,123,0.0,0.0,99,0.00,,,0.21,18.000000,,2013-08-20 13:01:00,
2013-08-20 09:42:00,73.0,73.0,-100.00,SE,136,0.0,0.0,99,0.00,,,0.14,53.000000,,2013-08-20 13:42:00,
2013-08-20 09:52:00,73.0,73.0,-100.00,SE,136,0.0,0.0,99,0.00,,,0.14,53.000000,,2013-08-20 13:52:00,
2013-08-20 10:02:00,73.0,73.0,-100.00,SE,136,0.0,0.0,99,0.00,,,0.14,53.000000,,2013-08-20 14:02:00,
2013-08-20 10:42:00,75.0,74.0,-100.00,South,174,3.0,6.0,97,0.00,,,0.14,140.000000,,2013-08-20 14:42:00,
2013-08-20 10:52:00,75.0,74.0,-100.00,South,174,3.0,6.0,97,0.00,,,0.14,140.000000,,2013-08-20 14:52:00,
2013-08-20 11:02:00,75.0,74.0,-100.00,South,174,3.0,6.0,97,0.00,,,0.14,140.000000,,2013-08-20 15:02:00,
2013-08-20 11:43:00,78.0,75.0,-100.00,SSE,147,2.0,5.0,90,0.00,,,0.14,188.000000,,2013-08-20 15:43:00,
2013-08-20 11:54:00,78.0,75.0,-100.00,SSE,147,2.0,5.0,90,0.00,,,0.14,188.000000,,2013-08-20 15:54:00,
2013-08-20 12:04:00,78.0,75.0,-100.00,SSE,147,2.0,5.0,90,0.00,,,0.14,188.000000,,2013-08-20 16:04:00,
2013-08-20 12:30:00,-999.0,-99.9,-100.00,SSW,192,2.0,5.0,87,0.00,,,0.14,234.000000,,2013-08-20 16:30:00,
2013-08-20 12:42:00,80.0,76.0,-100.00,SSW,192,2.0,5.0,87,0.00,,,0.14,234.000000,,2013-08-20 16:42:00,
2013-08-20 12:53:00,80.0,76.0,-100.00,SSW,192,2.0,5.0,87,0.00,,,0.14,234.000000,,2013-08-20 16:53:00,
2013-08-20 13:03:00,80.0,76.0,-100.00,SSW,192,2.0,5.0,87,0.00,,,0.14,234.000000,,2013-08-20 17:03:00,
2013-08-20 13:43:00,87.0,78.0,-100.00,WSW,254,3.0,5.0,74,0.00,,,0.14,701.000000,,2013-08-20 17:43:00,
2013-08-20 13:52:00,87.0,78.0,-100.00,WSW,254,3.0,5.0,74,0.00,,,0.14,701.000000,,2013-08-20 17:52:00,
2013-08-20 14:02:00,87.0,78.0,-100.00,WSW,254,3.0,5.0,74,0.00,,,0.14,701.000000,,2013-08-20 18:02:00,
2013-08-20 14:43:00,86.0,76.0,-100.00,South,173,3.0,6.0,73,0.00,,,0.14,685.000000,,2013-08-20 18:43:00,
2013-08-20 14:52:00,86.0,76.0,-100.00,South,173,3.0,6.0,73,0.00,,,0.14,685.000000,,2013-08-20 18:52:00,
2013-08-20 15:01:00,86.0,76.0,-100.00,South,173,3.0,6.0,73,0.00,,,0.14,685.000000,,2013-08-20 19:01:00,
2013-08-20 15:42:00,79.0,76.0,-100.00,NE,49,5.0,10.0,92,0.02,,,0.04,120.000000,,2013-08-20 19:42:00,
2013-08-20 15:53:00,79.0,76.0,-100.00,NE,49,5.0,10.0,92,0.02,,,0.04,120.000000,,2013-08-20 19:53:00,
2013-08-20 16:03:00,79.0,76.0,-100.00,NE,49,5.0,10.0,92,0.02,,,0.04,120.000000,,2013-08-20 20:03:00,
2013-08-20 16:42:00,79.0,77.0,-100.00,SE,128,5.0,10.0,95,0.27,,,0.31,250.000000,,2013-08-20 20:42:00,
2013-08-20 16:52:00,79.0,77.0,-100.00,SE,128,5.0,10.0,95,0.27,,,0.31,250.000000,,2013-08-20 20:52:00,
2013-08-20 17:03:00,79.0,77.0,-100.00,SE,128,5.0,10.0,95,0.27,,,0.31,250.000000,,2013-08-20 21:03:00,
2013-08-20 18:54:00,80.0,77.0,-100.00,WSW,239,2.0,8.0,90,0.00,,,0.31,161.000000,,2013-08-20 22:54:00,
2013-08-20 19:03:00,80.0,77.0,-100.00,WSW,239,2.0,8.0,90,0.00,,,0.31,161.000000,,2013-08-20 23:03:00,
2013-08-20 19:43:00,77.0,74.0,-100.00,WSW,257,5.0,11.0,91,0.00,,,0.30,73.000000,,2013-08-20 23:43:00,
2013-08-20 19:53:00,77.0,74.0,-100.00,WSW,257,5.0,11.0,91,0.00,,,0.30,73.000000,,2013-08-20 23:53:00,
2013-08-20 20:02:00,77.0,74.0,-100.00,WSW,257,5.0,11.0,91,0.00,,,0.30,73.000000,,2013-08-21 00:02:00,
2013-08-20 20:42:00,75.0,74.0,-100.00,South,184,3.0,7.0,96,0.01,,,0.30,9.000000,,2013-08-21 00:42:00,
2013-08-20 20:52:00,75.0,74.0,-100.00,South,184,3.0,7.0,96,0.01,,,0.30,9.000000,,2013-08-21 00:52:00,
2013-08-20 21:02:00,75.0,74.0,-100.00,South,184,3.0,7.0,96,0.01,,,0.30,9.000000,,2013-08-21 01:02:00,
2013-08-20 21:42:00,74.0,73.0,-100.00,NE,48,1.0,4.0,98,0.00,,,0.30,0.000000,,2013-08-21 01:42:00,
2013-08-20 21:52:00,74.0,73.0,-100.00,NE,48,1.0,4.0,98,0.00,,,0.30,0.000000,,2013-08-21 01:52:00,
2013-08-20 22:02:00,74.0,73.0,-100.00,NE,48,1.0,4.0,98,0.00,,,0.30,0.000000,,2013-08-21 02:02:00,
2013-08-20 22:42:00,74.0,73.0,-100.00,SSW,207,2.0,3.0,98,0.00,,,0.30,0.000000,,2013-08-21 02:42:00,
2013-08-20 22:52:00,74.0,73.0,-100.00,SSW,207,2.0,3.0,98,0.00,,,0.30,0.000000,,2013-08-21 02:52:00,
2013-08-20 23:02:00,74.0,73.0,-100.00,SSW,207,2.0,3.0,98,0.00,,,0.30,0.000000,,2013-08-21 03:02:00,
2013-08-20 23:44:00,73.0,72.0,-100.00,WSW,255,0.0,3.0,98,0.00,,,0.30,0.000000,,2013-08-21 03:44:00,
2013-08-20 23:55:00,73.0,72.0,-100.00,WSW,255,0.0,3.0,98,0.00,,,0.30,0.000000,,2013-08-21 03:55:00,